Time;durP1;ratioP1;P1;durP2;ratioP2;P2;SDS_P1;SDS_P2;PMS_P1;PMS_P2;Temp;Humidity;BMP_temperature;BMP_pressure;BME280_temperature;BME280_humidity;BME280_pressure;Samples;Min_cycle;Max_cycle;Signal;HPM_P1;HPM_P2
2023/04/21 00:01:12;;;;;;;6.25;5.75;;;;;;;10.26;77.96;63056.00;5056904;28;20232;-78
2023/04/21 00:03:40;;;;;;;6.32;5.82;;;;;;;10.26;77.87;63054.00;5066624;28;20221;-79
2023/04/21 00:06:08;;;;;;;10.10;5.75;;;;;;;10.20;78.16;63050.31;5066321;28;20419;-78
2023/04/21 00:08:39;;;;;;;7.28;5.40;;;;;;;10.19;78.18;63049.28;5064425;28;20420;-80
2023/04/21 00:11:07;;;;;;;5.95;5.43;;;;;;;10.14;78.16;63041.56;5065173;28;20205;-79
2023/04/21 00:13:35;;;;;;;7.90;6.07;;;;;;;10.10;78.82;63036.91;5067772;28;20225;-79
2023/04/21 00:16:01;;;;;;;5.82;5.28;;;;;;;10.12;78.60;63042.03;5066792;28;20200;-79
2023/04/21 00:18:28;;;;;;;7.80;5.45;;;;;;;10.09;77.98;63041.50;5056622;28;20297;-78
2023/04/21 00:20:55;;;;;;;9.38;5.45;;;;;;;10.12;77.50;63038.97;5048347;28;20202;-79
2023/04/21 00:23:22;;;;;;;7.45;5.30;;;;;;;10.13;78.07;63040.03;5045848;28;20234;-80
2023/04/21 00:25:49;;;;;;;6.70;5.85;;;;;;;10.15;77.66;63044.63;5045712;28;20193;-80
2023/04/21 00:28:17;;;;;;;8.10;5.50;;;;;;;10.24;77.14;63054.47;5050828;28;20225;-78
2023/04/21 00:30:45;;;;;;;5.80;5.20;;;;;;;10.15;76.96;63047.16;5066735;28;20227;-78
2023/04/21 00:33:12;;;;;;;6.75;5.50;;;;;;;10.09;77.12;63035.88;5067455;28;20235;-79
2023/04/21 00:35:39;;;;;;;5.30;4.90;;;;;;;10.15;76.82;63040.06;5066991;28;20197;-80
2023/04/21 00:38:05;;;;;;;4.95;4.50;;;;;;;10.04;77.14;63035.78;5050570;28;20218;-79
2023/04/21 00:40:32;;;;;;;5.60;5.10;;;;;;;10.14;76.19;63049.22;5045778;28;20197;-79
2023/04/21 00:42:59;;;;;;;6.97;4.90;;;;;;;10.09;76.14;63038.94;5047907;28;20240;-78
2023/04/21 00:45:27;;;;;;;5.53;5.00;;;;;;;10.10;75.54;63036.91;5045834;28;20244;-78
2023/04/21 00:47:54;;;;;;;5.40;4.90;;;;;;;10.02;75.55;63029.13;5054525;28;20232;-79
2023/04/21 00:50:21;;;;;;;5.47;4.28;;;;;;;10.01;75.32;63028.09;5066160;28;20204;-78
2023/04/21 00:52:49;;;;;;;5.60;4.82;;;;;;;10.02;75.25;63031.69;5065480;28;20213;-80
2023/04/21 00:55:16;;;;;;;7.75;4.70;;;;;;;10.01;74.76;63027.59;5057127;28;20225;-78
2023/04/21 00:57:43;;;;;;;5.90;4.28;;;;;;;9.99;75.38;63028.06;5046063;28;20281;-79
2023/04/21 01:00:11;;;;;;;5.18;3.67;;;;;;;10.03;74.71;63029.66;5049529;28;20225;-77
2023/04/21 01:02:41;;;;;;;5.18;4.63;;;;;;;10.05;74.44;63034.78;5047794;28;20241;-79
2023/04/21 01:05:08;;;;;;;4.78;4.38;;;;;;;9.99;74.91;63025.53;5058000;28;20254;-79
2023/04/21 01:07:36;;;;;;;4.85;4.35;;;;;;;9.95;74.42;63029.53;5064932;28;20217;-80
2023/04/21 01:10:06;;;;;;;8.80;4.53;;;;;;;9.94;75.09;63022.91;5065156;28;20197;-80
2023/04/21 01:12:34;;;;;;;5.07;4.25;;;;;;;9.98;75.15;63025.00;5063689;28;20251;-79
2023/04/21 01:15:01;;;;;;;8.23;5.03;;;;;;;10.03;74.41;63027.63;5067818;28;20208;-78
2023/04/21 01:17:30;;;;;;;5.60;5.05;;;;;;;10.01;74.27;63032.69;5070418;28;20228;-80
2023/04/21 01:20:02;;;;;;;5.45;5.03;;;;;;;9.99;74.42;63028.06;5070891;28;20204;-79
2023/04/21 01:22:31;;;;;;;4.82;4.43;;;;;;;9.92;74.61;63015.72;5059964;28;20236;-80
2023/04/21 01:24:58;;;;;;;5.40;4.35;;;;;;;9.94;74.51;63020.84;5048756;28;20479;-79
2023/04/21 01:27:25;;;;;;;6.88;5.57;;;;;;;9.92;75.52;63021.31;5049588;28;20309;-82
2023/04/21 01:29:53;;;;;;;6.78;4.75;;;;;;;9.89;76.23;63017.69;5051647;28;20202;-79
2023/04/21 01:32:21;;;;;;;5.70;4.95;;;;;;;9.93;76.30;63019.81;5052490;28;20226;-78
2023/04/21 01:34:49;;;;;;;5.95;4.80;;;;;;;9.86;77.33;63009.53;5050939;28;20206;-78
2023/04/21 01:37:19;;;;;;;5.72;5.22;;;;;;;9.86;77.28;63014.59;5048625;28;20237;-78
2023/04/21 01:39:53;;;;;;;5.82;4.95;;;;;;;9.85;77.74;63014.09;5052486;28;20213;-79
2023/04/21 01:42:21;;;;;;;6.47;5.57;;;;;;;9.76;77.72;62999.19;5067415;28;20271;-78
2023/04/21 01:44:48;;;;;;;5.10;4.70;;;;;;;9.83;77.57;63014.06;5069316;28;20240;-77
2023/04/21 01:47:16;;;;;;;5.85;5.35;;;;;;;9.77;78.01;63008.34;5069179;28;20275;-79
2023/04/21 01:49:42;;;;;;;6.18;5.55;;;;;;;9.76;78.54;63004.25;5067347;28;20205;-79
2023/04/21 01:52:09;;;;;;;5.22;4.75;;;;;;;9.64;78.56;62992.38;5068100;28;20221;-78
2023/04/21 01:54:36;;;;;;;5.55;4.95;;;;;;;9.72;77.88;62997.59;5068754;28;20204;-79
2023/04/21 01:57:05;;;;;;;5.30;4.85;;;;;;;9.68;78.61;62993.97;5071924;28;20225;-80
2023/04/21 01:59:32;;;;;;;5.90;4.82;;;;;;;9.55;78.84;62983.06;5062760;28;20257;-78
2023/04/21 02:01:59;;;;;;;5.68;5.07;;;;;;;9.55;79.18;62980.53;5048650;28;20225;-79
2023/04/21 02:04:26;;;;;;;4.60;4.30;;;;;;;9.52;79.26;62979.97;5049411;28;20419;-78
2023/04/21 02:06:53;;;;;;;5.38;4.88;;;;;;;9.51;79.52;62973.84;5052387;28;20455;-78
2023/04/21 02:09:20;;;;;;;5.70;4.97;;;;;;;9.51;79.63;62980.97;5058577;28;20209;-80
2023/04/21 02:11:48;;;;;;;5.03;4.63;;;;;;;9.47;80.52;62977.34;5050152;28;20252;-77
2023/04/21 02:14:16;;;;;;;6.85;4.53;;;;;;;9.48;80.40;62972.75;5050239;28;20391;-79
2023/04/21 02:16:43;;;;;;;6.55;5.43;;;;;;;9.52;80.30;62976.91;5060393;28;20588;-78
2023/04/21 02:19:10;;;;;;;6.85;4.72;;;;;;;9.43;80.60;62973.19;5058591;28;20197;-79
2023/04/21 02:21:37;;;;;;;4.93;4.60;;;;;;;9.39;80.93;62966.50;5068983;28;20189;-80
2023/04/21 02:24:04;;;;;;;6.10;5.10;;;;;;;9.41;81.16;62966.03;5068383;28;20229;-78
2023/04/21 02:26:31;;;;;;;5.40;5.00;;;;;;;9.39;81.25;62961.44;5068259;28;20230;-78
2023/04/21 02:28:59;;;;;;;5.65;5.07;;;;;;;9.32;81.88;62956.75;5054537;28;20459;-79
2023/04/21 02:31:27;;;;;;;6.43;5.65;;;;;;;9.36;82.07;62960.88;5048021;28;20261;-78
2023/04/21 02:33:54;;;;;;;6.13;5.53;;;;;;;9.38;81.84;62962.94;5050198;28;20228;-79
2023/04/21 02:36:21;;;;;;;5.72;4.80;;;;;;;9.36;84.32;62960.88;5068469;28;20197;-79
2023/04/21 02:38:48;;;;;;;6.90;5.45;;;;;;;9.41;85.78;62965.53;5050719;28;20197;-78
2023/04/21 02:41:15;;;;;;;6.57;5.90;;;;;;;9.43;86.67;62973.19;5049059;28;20194;-79
2023/04/21 02:43:42;;;;;;;5.63;5.07;;;;;;;9.43;87.95;62970.13;5056058;28;20243;-79
2023/04/21 02:46:09;;;;;;;9.27;6.32;;;;;;;9.44;87.98;62973.72;5067655;28;20255;-81
2023/04/21 02:48:38;;;;;;;5.47;4.93;;;;;;;9.44;87.53;62969.13;5067768;28;20223;-80
2023/04/21 02:51:04;;;;;;;8.38;6.40;;;;;;;9.46;87.04;62970.72;5068201;28;20194;-77
2023/04/21 02:53:31;;;;;;;6.75;6.22;;;;;;;9.47;87.24;62974.81;5069127;28;20289;-78
2023/04/21 02:56:01;;;;;;;9.15;5.88;;;;;;;9.59;87.00;62984.66;5066143;28;20284;-78
2023/04/21 02:58:28;;;;;;;8.45;6.43;;;;;;;9.65;86.40;62992.88;5067273;28;20217;-77
2023/04/21 03:00:55;;;;;;;7.53;5.90;;;;;;;9.71;86.05;62999.63;5066167;28;20232;-79
2023/04/21 03:03:21;;;;;;;7.35;6.65;;;;;;;9.80;85.75;63006.38;5067279;28;20252;-78
2023/04/21 03:05:49;;;;;;;5.72;5.20;;;;;;;9.82;85.85;63007.94;5059713;28;20455;-79
2023/04/21 03:08:17;;;;;;;6.68;5.95;;;;;;;9.83;85.72;63009.47;5050572;28;20226;-80
2023/04/21 03:10:44;;;;;;;10.68;6.18;;;;;;;9.89;85.66;63015.69;5056555;28;20261;-78
2023/04/21 03:13:11;;;;;;;9.43;5.88;;;;;;;9.95;84.63;63023.91;5068485;28;20233;-78
2023/04/21 03:15:37;;;;;;;6.53;5.60;;;;;;;9.95;83.97;63021.38;5065419;28;20197;-77
2023/04/21 03:18:04;;;;;;;6.13;5.53;;;;;;;9.94;83.68;63020.34;5066991;28;20217;-79
2023/04/21 03:20:31;;;;;;;6.00;5.50;;;;;;;9.98;83.03;63025.00;5051292;28;20202;-78
2023/04/21 03:23:00;;;;;;;8.18;5.90;;;;;;;10.00;83.17;63029.09;5046988;28;20245;-77
2023/04/21 03:25:27;;;;;;;8.60;5.95;;;;;;;10.02;83.55;63028.63;5047032;28;20194;-78
2023/04/21 03:27:54;;;;;;;6.53;5.30;;;;;;;10.05;83.47;63034.25;5048727;28;20217;-78
2023/04/21 03:30:21;;;;;;;5.70;5.30;;;;;;;10.03;83.40;63029.66;5067020;28;20204;-79
2023/04/21 03:32:49;;;;;;;6.93;6.28;;;;;;;10.04;82.20;63033.22;5066948;28;20225;-79
2023/04/21 03:35:16;;;;;;;7.22;5.60;;;;;;;10.04;82.69;63036.28;5067768;28;20193;-79
2023/04/21 03:37:43;;;;;;;8.32;5.57;;;;;;;10.06;82.24;63038.34;5065827;28;20221;-78
2023/04/21 03:40:12;;;;;;;6.40;5.82;;;;;;;10.11;80.92;63040.50;5068329;28;20201;-78
2023/04/21 03:42:39;;;;;;;7.47;6.60;;;;;;;10.09;80.45;63036.41;5066575;28;20274;-80
2023/04/21 03:45:08;;;;;;;7.38;6.28;;;;;;;10.16;80.25;63043.13;5067475;28;20270;-80
2023/04/21 03:47:35;;;;;;;7.70;6.72;;;;;;;10.23;80.10;63053.41;5067208;28;20240;-79
2023/04/21 03:50:04;;;;;;;8.50;6.45;;;;;;;10.14;79.84;63044.13;5067411;28;20198;-79
2023/04/21 03:52:31;;;;;;;7.80;7.10;;;;;;;10.12;81.22;63039.50;5067979;28;20225;-78
2023/04/21 03:54:58;;;;;;;6.85;6.15;;;;;;;10.08;80.82;63040.44;5066575;28;20201;-78
2023/04/21 03:57:27;;;;;;;6.88;6.28;;;;;;;10.00;80.27;63031.63;5067496;28;20228;-78
2023/04/21 03:59:54;;;;;;;7.55;6.85;;;;;;;10.02;80.22;63034.22;5063566;28;20198;-78
2023/04/21 04:02:20;;;;;;;8.50;5.95;;;;;;;9.99;80.02;63026.03;5060766;28;20243;-78
2023/04/21 04:04:47;;;;;;;8.05;6.82;;;;;;;10.00;80.12;63029.09;5059272;28;20212;-78
2023/04/21 04:07:16;;;;;;;9.15;6.88;;;;;;;10.01;80.80;63033.19;5046315;28;20214;-80
2023/04/21 04:09:43;;;;;;;7.18;6.22;;;;;;;9.92;81.18;63021.31;5047893;28;20186;-80
2023/04/21 04:12:10;;;;;;;6.80;6.13;;;;;;;9.99;80.95;63028.06;5066182;28;20251;-76
2023/04/21 04:14:39;;;;;;;7.30;5.88;;;;;;;10.02;81.07;63031.69;5067334;28;20498;-79
2023/04/21 04:17:06;;;;;;;11.93;7.40;;;;;;;10.07;81.80;63033.78;5069445;28;20229;-79
2023/04/21 04:19:33;;;;;;;7.00;6.40;;;;;;;10.15;82.20;63042.59;5063647;28;20240;-77
2023/04/21 04:22:00;;;;;;;9.95;7.28;;;;;;;10.18;81.60;63050.78;5057972;28;20213;-76
2023/04/21 04:24:27;;;;;;;8.40;7.50;;;;;;;10.26;81.42;63050.91;5067649;28;20349;-77
2023/04/21 04:26:56;;;;;;;8.48;7.65;;;;;;;10.36;80.89;63066.34;5064615;28;20217;-79
2023/04/21 04:29:24;;;;;;;7.30;6.63;;;;;;;10.35;80.42;63065.84;5067272;28;20311;-78
2023/04/21 04:31:52;;;;;;;8.55;7.68;;;;;;;10.38;79.62;63066.41;5066361;28;20223;-77
2023/04/21 04:34:21;;;;;;;8.27;7.03;;;;;;;10.34;80.28;63064.28;5065979;28;20201;-76
2023/04/21 04:36:49;;;;;;;7.45;6.75;;;;;;;10.34;80.38;63061.75;5067438;28;20386;-78
2023/04/21 04:39:16;;;;;;;11.57;7.53;;;;;;;10.41;80.62;63066.97;5054619;28;20401;-81
2023/04/21 04:41:43;;;;;;;9.65;7.18;;;;;;;10.41;80.79;63071.53;5054569;28;20228;-79
2023/04/21 04:44:10;;;;;;;8.43;7.63;;;;;;;10.61;79.70;63089.16;5066002;28;20233;-80
2023/04/21 04:46:38;;;;;;;7.97;7.22;;;;;;;10.69;78.71;63100.00;5068576;28;20201;-79
2023/04/21 04:49:06;;;;;;;8.38;7.22;;;;;;;10.68;79.05;63101.50;5066580;28;20231;-81
2023/04/21 04:51:33;;;;;;;7.35;6.65;;;;;;;10.72;78.95;63105.63;5068544;28;20244;-79
2023/04/21 04:54:00;;;;;;;8.38;7.40;;;;;;;10.67;79.90;63101.00;5066744;28;20244;-80
2023/04/21 04:56:29;;;;;;;7.15;6.43;;;;;;;10.73;79.13;63099.03;5049511;28;20202;-77
2023/04/21 04:58:56;;;;;;;8.98;7.85;;;;;;;10.78;79.29;63109.31;5048707;28;20202;-79
2023/04/21 05:01:28;;;;;;;7.50;6.63;;;;;;;10.78;79.20;63106.75;5061827;28;20208;-80
2023/04/21 05:03:56;;;;;;;7.68;6.97;;;;;;;10.88;78.65;63117.13;5062207;28;20228;-78
2023/04/21 05:06:24;;;;;;;9.32;7.25;;;;;;;10.90;78.34;63114.09;5047713;28;20233;-78
2023/04/21 05:08:51;;;;;;;8.27;6.78;;;;;;;10.87;77.85;63119.13;5048161;28;20194;-78
2023/04/21 05:11:18;;;;;;;9.85;7.38;;;;;;;10.88;78.12;63119.66;5049256;28;20198;-76
2023/04/21 05:13:44;;;;;;;11.52;7.28;;;;;;;10.82;79.19;63108.38;5058055;28;20426;-79
2023/04/21 05:16:11;;;;;;;9.65;6.95;;;;;;;10.92;78.61;63126.34;5068677;28;20228;-81
2023/04/21 05:18:38;;;;;;;8.95;7.40;;;;;;;10.96;78.09;63128.47;5068226;28;20585;-79
2023/04/21 05:21:06;;;;;;;7.88;7.13;;;;;;;11.08;77.88;63137.84;5069536;28;20198;-79
2023/04/21 05:23:34;;;;;;;10.88;8.32;;;;;;;11.14;77.26;63146.59;5051904;28;20241;-77
2023/04/21 05:26:01;;;;;;;8.35;7.30;;;;;;;11.16;78.03;63141.53;5049272;28;20210;-79
2023/04/21 05:28:30;;;;;;;10.27;6.88;;;;;;;11.17;78.04;63147.13;5061628;28;20221;-79
2023/04/21 05:30:57;;;;;;;7.18;6.40;;;;;;;11.32;77.33;63162.69;5063612;28;20210;-79
2023/04/21 05:33:25;;;;;;;8.63;7.70;;;;;;;11.40;77.44;63173.50;5049815;28;20228;-78
2023/04/21 05:35:52;;;;;;;8.20;7.22;;;;;;;11.49;77.67;63180.28;5047593;28;20217;-80
2023/04/21 05:38:19;;;;;;;9.77;6.90;;;;;;;11.53;77.17;63184.94;5050963;28;20244;-77
2023/04/21 05:40:54;;;;;;;10.48;7.72;;;;;;;11.71;76.56;63200.53;5056896;28;20283;-77
2023/04/21 05:43:22;;;;;;;10.65;6.32;;;;;;;11.69;74.66;63203.56;5069194;28;20220;-80
2023/04/21 05:45:49;;;;;;;8.23;6.25;;;;;;;11.80;73.70;63214.47;5064727;28;20223;-78
2023/04/21 05:48:16;;;;;;;8.45;6.65;;;;;;;11.82;72.75;63211.94;5070084;28;20267;-79
2023/04/21 05:50:43;;;;;;;9.75;7.45;;;;;;;11.85;73.26;63219.63;5052799;28;20225;-77
2023/04/21 05:53:10;;;;;;;9.45;6.80;;;;;;;11.94;72.88;63231.50;5056121;28;20237;-80
2023/04/21 05:55:37;;;;;;;8.73;7.25;;;;;;;12.02;73.34;63240.31;5052713;28;20209;-77
2023/04/21 05:58:05;;;;;;;7.35;6.63;;;;;;;12.18;72.31;63256.38;5047987;28;20221;-78
2023/04/21 06:00:32;;;;;;;7.07;6.25;;;;;;;12.11;72.15;63246.56;5045607;28;20363;-80
2023/04/21 06:02:59;;;;;;;9.10;6.90;;;;;;;12.07;72.61;63242.44;5049749;28;20240;-77
2023/04/21 06:05:26;;;;;;;10.45;8.98;;;;;;;12.01;73.89;63234.16;5071508;28;20205;-79
2023/04/21 06:07:53;;;;;;;6.93;6.32;;;;;;;11.85;73.86;63215.06;5063055;28;20227;-78
2023/04/21 06:10:21;;;;;;;9.82;7.65;;;;;;;11.76;75.30;63207.75;5051234;28;20247;-77
2023/04/21 06:12:48;;;;;;;10.07;7.43;;;;;;;11.84;75.58;63218.59;5054041;28;20283;-79
2023/04/21 06:15:17;;;;;;;9.15;7.60;;;;;;;11.81;75.88;63213.47;5070481;28;20280;-78
2023/04/21 06:17:44;;;;;;;8.60;7.38;;;;;;;11.89;75.40;63219.19;5071079;28;20228;-79
2023/04/21 06:20:11;;;;;;;9.02;7.15;;;;;;;11.89;75.99;63221.75;5071155;28;20193;-78
2023/04/21 06:22:38;;;;;;;7.38;6.68;;;;;;;11.87;75.85;63222.22;5062807;28;20296;-79
2023/04/21 06:25:06;;;;;;;9.57;7.45;;;;;;;12.03;75.61;63230.63;5051849;28;20309;-78
2023/04/21 06:27:33;;;;;;;9.05;8.05;;;;;;;12.01;74.60;63233.66;5051801;28;20218;-78
2023/04/21 06:30:00;;;;;;;8.40;7.60;;;;;;;12.12;73.98;63247.59;5052904;28;20197;-75
2023/04/21 06:32:28;;;;;;;10.82;9.23;;;;;;;11.99;76.04;63234.16;5067142;28;20232;-79
2023/04/21 06:34:55;;;;;;;8.85;8.05;;;;;;;12.09;74.66;63241.94;5072303;28;20212;-80
2023/04/21 06:37:22;;;;;;;7.78;7.07;;;;;;;12.17;72.45;63255.88;5071299;28;20217;-78
2023/04/21 06:39:49;;;;;;;7.10;6.50;;;;;;;12.01;74.61;63236.72;5068301;28;20247;-78
2023/04/21 06:42:16;;;;;;;10.55;6.40;;;;;;;11.96;73.27;63231.53;5050372;28;20328;-80
2023/04/21 06:44:43;;;;;;;7.25;6.35;;;;;;;11.93;75.85;63228.44;5052680;28;20264;-76
2023/04/21 06:47:10;;;;;;;10.38;7.18;;;;;;;11.89;75.62;63224.28;5067729;28;20247;-79
2023/04/21 06:49:39;;;;;;;7.15;6.25;;;;;;;12.06;75.48;63238.84;5067994;28;20201;-76
2023/04/21 06:52:05;;;;;;;7.60;6.88;;;;;;;12.06;73.51;63236.78;5068131;28;20403;-81
2023/04/21 06:54:32;;;;;;;7.75;6.88;;;;;;;12.37;72.96;63271.47;5053012;28;20255;-77
2023/04/21 06:56:59;;;;;;;7.25;6.55;;;;;;;12.44;70.94;63278.22;5064252;28;20281;-78
2023/04/21 06:59:26;;;;;;;7.38;6.68;;;;;;;12.20;73.75;63256.41;5060418;28;20197;-76
2023/04/21 07:01:53;;;;;;;10.35;6.95;;;;;;;12.41;71.64;63275.63;5068659;28;20235;-80
2023/04/21 07:04:20;;;;;;;9.90;7.00;;;;;;;12.42;71.54;63281.78;5064647;28;20441;-79
2023/04/21 07:06:48;;;;;;;6.43;5.82;;;;;;;12.21;72.35;63257.47;5052576;28;20221;-76
2023/04/21 07:09:15;;;;;;;7.28;6.57;;;;;;;12.24;73.05;63260.03;5066106;28;20196;-79
2023/04/21 07:11:42;;;;;;;10.75;6.47;;;;;;;12.58;70.08;63295.81;5060378;28;20209;-78
2023/04/21 07:14:09;;;;;;;7.10;5.43;;;;;;;12.43;68.59;63277.72;5065159;28;20204;-76
2023/04/21 07:16:36;;;;;;;8.15;6.25;;;;;;;12.33;71.28;63269.91;5066901;28;20202;-76
2023/04/21 07:19:03;;;;;;;7.57;6.82;;;;;;;12.36;71.70;63267.91;5053585;28;20200;-77
2023/04/21 07:21:34;;;;;;;6.93;6.22;;;;;;;12.63;71.74;63295.88;5055736;28;20202;-79
2023/04/21 07:24:04;;;;;;;8.48;6.88;;;;;;;13.00;67.68;63335.78;5070192;28;20276;-78
2023/04/21 07:26:31;;;;;;;7.43;6.63;;;;;;;13.23;66.11;63365.28;5068799;28;20251;-80
2023/04/21 07:28:58;;;;;;;7.80;5.80;;;;;;;13.25;65.73;63364.28;5052818;28;20206;-76
2023/04/21 07:31:25;;;;;;;6.55;5.15;;;;;;;13.11;66.31;63344.66;5051911;28;20201;-77
2023/04/21 07:33:52;;;;;;;9.10;5.95;;;;;;;12.70;68.13;63305.19;5050125;28;20269;-77
2023/04/21 07:36:19;;;;;;;8.82;5.43;;;;;;;12.79;68.86;63319.63;5066585;28;20202;-81
2023/04/21 07:38:46;;;;;;;8.43;6.13;;;;;;;13.13;69.19;63359.50;5069657;28;20223;-80
2023/04/21 07:41:14;;;;;;;5.93;5.38;;;;;;;13.35;66.44;63374.66;5069460;28;20251;-78
2023/04/21 07:43:41;;;;;;;7.40;6.07;;;;;;;13.55;64.42;63393.38;5057836;28;20268;-76
2023/04/21 07:46:08;;;;;;;6.70;5.80;;;;;;;13.77;62.59;63415.69;5061868;28;20259;-81
2023/04/21 07:48:35;;;;;;;6.00;5.40;;;;;;;13.71;62.00;63409.97;5050129;28;20527;-79
2023/04/21 07:51:02;;;;;;;4.70;4.40;;;;;;;13.51;63.51;63391.28;5055331;28;20209;-76
2023/04/21 07:53:29;;;;;;;6.45;5.68;;;;;;;13.49;63.76;63389.72;5052517;28;20245;-80
2023/04/21 07:55:56;;;;;;;5.97;5.43;;;;;;;13.25;65.28;63367.38;5057392;28;20201;-78
2023/04/21 07:58:25;;;;;;;8.18;5.75;;;;;;;13.41;63.99;63383.44;5055291;28;20262;-79
2023/04/21 08:00:52;;;;;;;6.50;5.68;;;;;;;13.67;63.10;63412.97;5061873;28;20205;-80
2023/04/21 08:03:19;;;;;;;6.13;5.47;;;;;;;13.79;60.78;63417.75;5056743;28;20221;-79
2023/04/21 08:05:46;;;;;;;7.72;4.95;;;;;;;13.91;59.79;63432.78;5057952;28;20234;-80
2023/04/21 08:08:19;;;;;;;6.72;4.97;;;;;;;13.99;59.02;63441.09;5059764;28;20276;-78
2023/04/21 08:10:45;;;;;;;8.13;5.68;;;;;;;14.20;58.97;63459.81;5066829;28;20204;-76
2023/04/21 08:13:13;;;;;;;8.15;6.25;;;;;;;13.84;61.12;63422.94;5058167;28;20218;-76
2023/04/21 08:15:41;;;;;;;5.50;5.00;;;;;;;13.87;60.78;63428.63;5056354;28;20198;-80
2023/04/21 08:18:09;;;;;;;5.72;5.07;;;;;;;14.29;58.32;63472.25;5072763;28;20263;-80
2023/04/21 08:20:36;;;;;;;6.72;6.07;;;;;;;14.39;58.90;63482.63;5061618;28;20407;-79
2023/04/21 08:23:03;;;;;;;6.00;5.10;;;;;;;14.60;57.97;63503.94;5064204;28;20237;-80
2023/04/21 08:25:30;;;;;;;6.80;5.78;;;;;;;14.83;58.27;63530.38;5064150;28;20245;-76
2023/04/21 08:27:58;;;;;;;6.68;4.80;;;;;;;14.30;59.36;63468.16;5060053;28;20231;-78
2023/04/21 08:30:27;;;;;;;5.20;4.70;;;;;;;14.36;58.08;63479.50;5063844;28;20194;-80
2023/04/21 08:32:56;;;;;;;4.82;4.43;;;;;;;14.12;58.07;63451.50;5059459;28;20224;-75
2023/04/21 08:35:23;;;;;;;5.13;4.72;;;;;;;13.80;60.09;63421.88;5062830;28;20224;-78
2023/04/21 08:37:50;;;;;;;4.68;4.32;;;;;;;14.13;59.50;63452.53;5060509;28;20225;-79
2023/04/21 08:40:17;;;;;;;6.97;6.18;;;;;;;14.33;58.84;63475.88;5058062;28;20205;-76
2023/04/21 08:42:44;;;;;;;5.40;4.90;;;;;;;14.10;60.21;63447.38;5060140;28;20225;-79
2023/04/21 08:45:12;;;;;;;7.45;5.57;;;;;;;14.38;60.04;63475.94;5066326;28;20232;-78
2023/04/21 08:47:41;;;;;;;7.07;5.20;;;;;;;14.61;58.21;63510.63;5055822;28;20540;-77
2023/04/21 08:50:13;;;;;;;5.15;4.60;;;;;;;14.62;58.22;63503.44;5057158;28;20435;-79
2023/04/21 08:52:40;;;;;;;5.80;5.20;;;;;;;15.12;56.16;63557.44;5065957;28;20316;-77
2023/04/21 08:55:07;;;;;;;7.95;4.93;;;;;;;15.25;55.49;63568.91;5058963;28;20205;-80
2023/04/21 08:57:34;;;;;;;7.07;5.05;;;;;;;15.48;54.68;63592.31;5060529;28;20314;-76
2023/04/21 09:00:01;;;;;;;5.93;5.30;;;;;;;15.17;55.99;63560.06;5054214;28;20524;-74
2023/04/21 09:02:28;;;;;;;5.35;5.05;;;;;;;14.87;56.22;63529.94;5054512;28;20232;-76
2023/04/21 09:04:55;;;;;;;5.80;5.28;;;;;;;15.10;56.24;63553.28;5056830;28;20285;-78
2023/04/21 09:07:33;;;;;;;7.28;5.38;;;;;;;15.47;55.03;63594.34;5057232;28;20225;-76
2023/04/21 09:10:00;;;;;;;5.72;4.88;;;;;;;15.23;54.82;63569.38;5052427;28;20205;-74
2023/04/21 09:12:28;;;;;;;6.38;4.80;;;;;;;15.14;55.46;63556.94;5052938;28;20270;-79
2023/04/21 09:14:56;;;;;;;6.57;5.38;;;;;;;15.34;54.57;63578.22;5053780;28;20209;-78
2023/04/21 09:17:31;;;;;;;5.40;4.38;;;;;;;15.42;54.41;63591.19;5060079;28;20277;-79
2023/04/21 09:19:57;;;;;;;6.07;4.85;;;;;;;15.56;54.42;63603.69;5063864;28;20197;-79
2023/04/21 09:22:28;;;;;;;8.75;5.15;;;;;;;15.56;53.61;63608.84;5058761;28;20279;-81
2023/04/21 09:25:00;;;;;;;5.03;4.68;;;;;;;15.36;53.57;63580.31;5063388;28;20264;-77
2023/04/21 09:27:26;;;;;;;7.30;4.55;;;;;;;15.62;53.12;63609.41;5054338;28;20223;-78
2023/04/21 09:29:53;;;;;;;6.35;5.13;;;;;;;15.76;52.49;63629.63;5060701;28;20247;-78
2023/04/21 09:32:20;;;;;;;5.28;4.57;;;;;;;15.92;51.64;63641.13;5060264;28;20228;-78
2023/04/21 09:34:48;;;;;;;4.80;4.40;;;;;;;16.15;51.17;63667.09;5054767;28;20198;-79
2023/04/21 09:37:15;;;;;;;4.10;3.70;;;;;;;15.92;51.77;63640.59;5060346;28;20221;-76
2023/04/21 09:39:46;;;;;;;5.03;4.60;;;;;;;15.81;53.98;63632.25;5053472;28;20198;-77
2023/04/21 09:42:14;;;;;;;5.07;4.68;;;;;;;15.91;53.38;63642.66;5063122;28;20217;-81
2023/04/21 09:44:41;;;;;;;4.70;4.40;;;;;;;16.23;50.89;63667.69;5070880;28;20239;-79
2023/04/21 09:47:12;;;;;;;5.18;4.35;;;;;;;16.70;49.25;63718.66;5067337;28;20237;-78
2023/04/21 09:49:43;;;;;;;3.75;3.55;;;;;;;16.92;46.88;63744.13;5071898;28;20215;-80
2023/04/21 09:52:12;;;;;;;4.07;3.70;;;;;;;16.64;47.68;63712.94;5061883;28;20514;-78
2023/04/21 09:54:45;;;;;;;4.50;4.10;;;;;;;16.32;48.79;63684.25;5057981;28;20196;-77
2023/04/21 09:57:17;;;;;;;4.80;4.50;;;;;;;16.05;50.74;63657.22;5060719;28;20217;-78
2023/04/21 09:59:47;;;;;;;3.90;3.70;;;;;;;16.20;49.01;63670.22;5058774;28;20194;-75
2023/04/21 10:02:14;;;;;;;5.03;4.47;;;;;;;16.47;49.02;63699.88;5065130;28;20249;-80
2023/04/21 10:04:42;;;;;;;4.95;4.25;;;;;;;16.46;49.82;63696.78;5055791;28;20240;-80
2023/04/21 10:07:10;;;;;;;4.70;4.28;;;;;;;16.33;49.58;63680.66;5061117;28;20434;-81
2023/04/21 10:09:43;;;;;;;4.50;4.20;;;;;;;16.37;49.51;63689.97;5063091;28;20236;-79
2023/04/21 10:12:11;;;;;;;5.05;4.60;;;;;;;16.71;50.69;63722.28;5069380;28;20216;-79
2023/04/21 10:14:39;;;;;;;5.80;4.65;;;;;;;17.11;48.76;63767.00;5069754;28;20213;-81
2023/04/21 10:17:07;;;;;;;4.65;3.80;;;;;;;17.17;48.35;63775.81;5064842;28;20255;-80
2023/04/21 10:19:38;;;;;;;4.47;4.13;;;;;;;17.59;46.13;63811.31;5073730;28;20203;-79
2023/04/21 10:22:06;;;;;;;3.58;3.38;;;;;;;17.97;44.62;63850.38;5070291;28;20413;-79
2023/04/21 10:24:38;;;;;;;4.57;3.95;;;;;;;17.96;44.62;63851.91;5065813;28;20264;-77
2023/04/21 10:27:05;;;;;;;5.25;4.18;;;;;;;17.73;45.40;63833.09;5063970;28;20224;-77
2023/04/21 10:29:34;;;;;;;4.97;4.32;;;;;;;17.46;45.85;63802.94;5065148;28;20204;-79
2023/04/21 10:32:04;;;;;;;3.53;3.22;;;;;;;17.73;43.07;63828.47;5070739;28;20232;-81
2023/04/21 10:34:36;;;;;;;5.25;3.83;;;;;;;17.91;43.73;63847.22;5068142;28;20204;-80
2023/04/21 10:37:31;;;;;;;3.80;3.60;;;;;;;16.89;47.12;63741.00;5064581;28;20220;-78
2023/04/21 10:39:58;;;;;;;4.90;4.22;;;;;;;16.35;51.32;63685.31;5048722;28;20198;-77
2023/04/21 10:42:43;;;;;;;5.20;4.80;;;;;;;15.17;60.19;63560.06;5064894;28;20225;-76
2023/04/21 10:45:11;;;;;;;7.80;5.05;;;;;;;14.59;64.71;63502.88;5064541;28;20228;-78
2023/04/21 10:47:47;;;;;;;5.03;3.85;;;;;;;14.29;58.05;63469.69;5067225;28;20236;-76
2023/04/21 10:50:17;;;;;;;8.35;4.22;;;;;;;14.15;57.83;63462.31;5060120;28;20200;-77
2023/04/21 10:52:46;;;;;;;5.32;4.55;;;;;;;14.35;59.30;63477.97;5063759;28;20218;-80
2023/04/21 10:55:16;;;;;;;4.45;4.15;;;;;;;14.67;57.34;63511.19;5062895;28;20205;-79
2023/04/21 10:57:45;;;;;;;3.90;3.70;;;;;;;15.07;53.21;63552.75;5058461;28;20233;-79
2023/04/21 11:00:16;;;;;;;5.20;4.68;;;;;;;15.42;50.85;63586.59;5061251;28;20197;-80
2023/04/21 11:02:52;;;;;;;3.65;3.33;;;;;;;15.83;49.98;63631.78;5067311;28;20216;-79
2023/04/21 11:05:20;;;;;;;3.50;3.30;;;;;;;15.92;49.31;63640.59;5060733;28;20267;-80
2023/04/21 11:07:47;;;;;;;4.28;3.72;;;;;;;16.15;50.25;63664.53;5063824;28;20216;-79
2023/04/21 11:10:14;;;;;;;4.28;4.00;;;;;;;16.12;50.67;63659.34;5063157;28;20299;-79
2023/04/21 11:12:41;;;;;;;5.30;4.45;;;;;;;16.15;50.63;63667.59;5067868;28;20283;-80
2023/04/21 11:15:10;;;;;;;4.80;4.43;;;;;;;16.19;50.68;63666.09;5069688;28;20212;-82
2023/04/21 11:17:38;;;;;;;5.35;4.38;;;;;;;16.28;49.87;63675.47;5066088;28;20504;-79
2023/04/21 11:20:08;;;;;;;4.72;4.32;;;;;;;16.45;49.00;63695.72;5066282;28;20549;-80
2023/04/21 11:22:37;;;;;;;4.75;4.45;;;;;;;16.43;49.70;63693.63;5059274;28;20240;-77
2023/04/21 11:25:05;;;;;;;3.83;3.53;;;;;;;16.20;49.94;63667.66;5055564;28;20235;-82
2023/04/21 11:27:32;;;;;;;4.68;4.28;;;;;;;16.24;50.20;63676.44;5059297;28;20229;-80
2023/04/21 11:30:03;;;;;;;7.30;4.00;;;;;;;16.70;48.95;63721.75;5059521;28;20203;-80
2023/04/21 11:32:30;;;;;;;4.43;4.13;;;;;;;16.96;48.54;63748.28;5056587;28;20278;-81
2023/04/21 11:34:57;;;;;;;6.53;4.28;;;;;;;17.26;47.28;63776.94;5063409;28;20216;-77
2023/04/21 11:37:27;;;;;;;4.97;3.70;;;;;;;17.25;46.48;63779.00;5056932;28;20231;-82